Time;durP1;ratioP1;P1;durP2;ratioP2;P2;SDS_P1;SDS_P2;PMS_P1;PMS_P2;Temp;Humidity;BMP_temperature;BMP_pressure;BME280_temperature;BME280_humidity;BME280_pressure;Samples;Min_cycle;Max_cycle;Signal;HPM_P1;HPM_P2
2022/04/22 00:05:09;;;;;;;17.00;15.30;;;;;;;6.13;81.52;99042.54;448012;1267;142034;-62
2022/04/22 00:15:15;;;;;;;19.10;15.80;;;;;;;6.19;81.83;99034.20;447641;1270;142666;-62
2022/04/22 00:25:21;;;;;;;17.70;15.90;;;;;;;6.38;81.96;99024.48;436856;1267;143253;-63
2022/04/22 00:35:27;;;;;;;26.40;23.60;;;;;;;6.49;81.99;99024.90;444070;1269;143322;-62
2022/04/22 00:45:33;;;;;;;22.70;20.40;;;;;;;6.55;81.95;99020.71;447610;1269;142663;-62
2022/04/22 00:55:41;;;;;;;18.60;16.80;;;;;;;6.58;81.72;99006.14;447210;1265;145822;-62
2022/04/22 01:16:11;;;;;;;14.20;12.70;;;;;;;6.65;81.13;98989.23;447188;1267;142296;-62
2022/04/22 01:26:17;;;;;;;16.10;13.60;;;;;;;6.67;80.85;98993.95;441822;1267;142602;-62
2022/04/22 01:36:23;;;;;;;20.90;12.70;;;;;;;6.70;80.73;99001.62;431439;1268;141854;-61
2022/04/22 01:46:29;;;;;;;12.50;11.20;;;;;;;6.70;80.51;99002.67;437148;1267;181174;-62
2022/04/22 01:56:34;;;;;;;12.20;11.00;;;;;;;6.71;80.32;98992.00;435351;1268;141442;-62
2022/04/22 02:06:40;;;;;;;10.80;9.60;;;;;;;6.72;80.13;98981.70;438278;1270;142394;-62
2022/04/22 02:16:46;;;;;;;9.40;8.10;;;;;;;6.72;79.86;98983.60;448030;1267;142524;-63
2022/04/22 02:37:15;;;;;;;8.00;7.30;;;;;;;6.77;79.19;98981.29;447313;1267;141840;-63
2022/04/22 02:47:21;;;;;;;9.00;7.20;;;;;;;6.77;78.91;98979.64;446200;1267;142311;-62
2022/04/22 02:57:27;;;;;;;10.10;7.10;;;;;;;6.79;78.76;98982.52;439188;1267;142076;-62
2022/04/22 03:07:33;;;;;;;10.80;9.00;;;;;;;6.78;78.76;98975.40;437910;1267;142203;-62
2022/04/22 03:17:39;;;;;;;10.00;8.40;;;;;;;6.83;78.61;98981.55;431367;1268;141895;-61
2022/04/22 03:27:45;;;;;;;8.20;7.40;;;;;;;6.89;78.58;98984.56;430181;1269;164258;-62
2022/04/22 03:37:51;;;;;;;9.00;8.00;;;;;;;6.91;78.29;98981.98;447976;1267;141315;-62
2022/04/22 03:47:58;;;;;;;11.40;8.90;;;;;;;6.98;77.99;98980.38;447894;1265;141587;-63
2022/04/22 03:58:13;;;;;;;10.80;9.30;;;;;;;7.01;77.74;98984.55;440008;1266;142509;-63
2022/04/22 04:08:21;;;;;;;11.10;9.30;;;;;;;6.97;77.71;98995.39;438923;1269;141309;-63
2022/04/22 04:18:27;;;;;;;12.50;11.20;;;;;;;6.91;77.96;98995.05;438556;1267;142674;-62
2022/04/22 04:28:33;;;;;;;13.10;11.70;;;;;;;6.88;78.37;99002.02;437144;1267;141412;-63
2022/04/22 04:38:40;;;;;;;15.10;13.30;;;;;;;6.81;78.63;98999.45;447882;1267;141136;-62
2022/04/22 04:48:46;;;;;;;16.70;13.80;;;;;;;6.87;78.92;99003.63;447182;1267;142655;-63
2022/04/22 04:58:52;;;;;;;17.00;12.60;;;;;;;6.91;79.04;98999.21;445376;1267;142917;-62
2022/04/22 05:08:58;;;;;;;13.80;12.40;;;;;;;6.98;79.10;99009.80;447867;1267;142153;-64
2022/04/22 05:19:03;;;;;;;12.50;11.10;;;;;;;7.13;79.13;99014.15;439589;1269;142799;-61
2022/04/22 05:32:36;;;;;;;14.20;12.70;;;;;;;7.21;78.99;99004.46;447983;1267;143351;-64
2022/04/22 05:39:35;;;;;;;15.10;11.70;;;;;;;7.26;79.23;99009.38;448034;1267;143021;-63
2022/04/22 05:49:41;;;;;;;20.20;13.00;;;;;;;7.30;79.18;99016.23;447227;1267;142765;-62
2022/04/22 05:59:48;;;;;;;14.00;12.60;;;;;;;7.23;79.35;99007.63;447179;1266;141680;-63
2022/04/22 06:20:17;;;;;;;14.40;12.50;;;;;;;6.95;80.48;99024.75;443573;1269;141848;-63
2022/04/22 06:30:24;;;;;;;12.50;11.30;;;;;;;6.87;81.08;99036.16;433205;1267;142860;-63
2022/04/22 06:50:56;;;;;;;6.60;6.00;;;;;;;6.93;80.73;99020.00;446770;1268;142355;-63
2022/04/22 07:01:04;;;;;;;5.70;4.30;;;;;;;7.04;80.35;99029.11;433430;1267;142688;-69
2022/04/22 07:11:31;;;;;;;2.40;2.20;;;;;;;7.18;79.82;99033.70;447126;1267;141450;-62
2022/04/22 07:21:38;;;;;;;2.50;2.40;;;;;;;7.60;79.11;99054.16;446266;1267;142064;-65
2022/04/22 07:31:44;;;;;;;2.60;2.40;;;;;;;8.21;77.82;99051.52;447398;1265;141671;-61
2022/04/22 07:41:52;;;;;;;3.20;1.60;;;;;;;9.41;75.83;99045.55;448005;1267;142875;-61
2022/04/22 07:51:58;;;;;;;1.80;1.60;;;;;;;9.63;74.03;99054.05;434560;1268;140679;-65
2022/04/22 08:02:05;;;;;;;1.40;1.30;;;;;;;9.20;72.58;99060.76;431672;1268;141805;-63
2022/04/22 08:12:13;;;;;;;3.70;2.10;;;;;;;8.97;72.53;99065.73;431571;1268;141590;-58
2022/04/22 08:22:18;;;;;;;2.30;2.20;;;;;;;8.85;71.81;99070.20;447297;1267;146399;-58
2022/04/22 08:32:24;;;;;;;2.20;2.00;;;;;;;8.63;71.93;99072.46;448064;1267;141945;-60
2022/04/22 08:42:31;;;;;;;1.70;1.60;;;;;;;8.70;71.18;99079.15;446501;1268;146153;-59
2022/04/22 08:52:43;;;;;;;1.90;1.80;;;;;;;9.18;70.92;99074.83;438896;1268;142632;-60
2022/04/22 09:02:49;;;;;;;2.80;2.50;;;;;;;9.30;69.64;99077.23;440506;1268;197882;-60
2022/04/22 09:12:57;;;;;;;2.50;2.20;;;;;;;9.64;68.81;99077.40;437976;1268;145373;-60
2022/04/22 09:23:21;;;;;;;2.00;1.90;;;;;;;10.38;66.86;99070.23;447995;1267;141921;-61
2022/04/22 09:33:33;;;;;;;2.80;2.30;;;;;;;10.79;65.72;99073.27;448057;1268;142358;-65
2022/04/22 09:43:42;;;;;;;3.40;3.10;;;;;;;10.62;64.82;99083.20;442375;1268;142332;-65
2022/04/22 09:53:59;;;;;;;3.70;3.50;;;;;;;10.55;64.46;99081.23;448074;1268;143656;-61
2022/04/22 10:04:05;;;;;;;2.80;2.60;;;;;;;10.63;63.78;99096.14;446757;1270;163776;-60
2022/04/22 10:14:12;;;;;;;3.60;3.30;;;;;;;10.32;63.95;99091.61;448067;1267;141884;-61
2022/04/22 10:24:19;;;;;;;4.10;3.80;;;;;;;10.95;63.80;99086.97;447885;1269;142248;-62
2022/04/22 10:34:40;;;;;;;4.20;3.90;;;;;;;11.70;61.27;99072.45;437109;1268;142281;-59
2022/04/22 10:55:13;;;;;;;9.40;5.20;;;;;;;11.84;59.51;99075.21;447348;1267;187167;-60
2022/04/22 11:05:36;;;;;;;5.40;4.90;;;;;;;11.95;58.78;99074.89;447886;1269;141760;-61
2022/04/22 11:15:51;;;;;;;5.00;4.50;;;;;;;11.92;55.83;99074.96;448006;1268;141965;-61
2022/04/22 11:26:00;;;;;;;4.10;3.80;;;;;;;11.83;54.92;99077.08;444329;1268;141652;-62
2022/04/22 11:36:06;;;;;;;;;;;;;;;11.81;55.17;99083.33;448141;1267;145129;-63
2022/04/22 11:46:13;;;;;;;3.80;3.50;;;;;;;11.55;54.47;99084.06;447383;1269;127702;-60
2022/04/22 11:56:21;;;;;;;4.10;3.80;;;;;;;11.77;53.06;99076.98;447930;1268;215700;-62
2022/04/22 12:06:26;;;;;;;;;;;;;;;11.66;53.22;99064.88;443283;1268;141511;-60
2022/04/22 12:16:32;;;;;;;2.30;2.20;;;;;;;12.00;52.09;99065.24;447329;1268;131530;-61
2022/04/22 12:26:39;;;;;;;3.30;2.40;;;;;;;11.96;50.85;99055.73;448095;1267;142844;-60
2022/04/22 12:36:58;;;;;;;2.40;2.30;;;;;;;12.41;50.78;99048.54;447340;1266;162929;-61
2022/04/22 12:57:41;;;;;;;3.00;2.70;;;;;;;12.08;49.92;99040.80;446485;1269;142035;-61
2022/04/22 13:07:49;;;;;;;3.10;2.80;;;;;;;12.51;49.68;99030.93;447985;1268;142214;-61
2022/04/22 13:17:56;;;;;;;3.20;3.00;;;;;;;12.59;49.59;99029.91;445674;1267;142402;-62
2022/04/22 13:28:03;;;;;;;3.20;2.90;;;;;;;12.03;48.84;99039.20;435342;1267;141435;-61
2022/04/22 13:38:14;;;;;;;3.50;2.00;;;;;;;11.81;47.86;99020.75;443794;1268;144520;-61
2022/04/22 13:58:44;;;;;;;4.20;3.10;;;;;;;11.31;48.03;99008.95;447470;1268;145012;-67
2022/04/22 14:08:51;;;;;;;2.80;2.60;;;;;;;11.56;48.30;99001.25;447662;1270;141634;-62
2022/04/22 14:18:57;;;;;;;3.40;3.10;;;;;;;11.59;48.60;99008.25;447238;1267;143256;-64
2022/04/22 14:29:03;;;;;;;3.40;3.10;;;;;;;11.74;48.58;99010.56;447919;1268;141728;-59
2022/04/22 14:39:09;;;;;;;3.80;3.10;;;;;;;11.51;48.24;99016.71;448052;1267;142583;-69
2022/04/22 14:49:15;;;;;;;3.40;2.60;;;;;;;11.50;48.10;99015.61;443473;1267;142604;-65
2022/04/22 14:59:21;;;;;;;5.40;3.30;;;;;;;11.34;48.60;99022.75;447901;1267;142058;-68
2022/04/22 15:09:27;;;;;;;3.60;2.90;;;;;;;11.21;48.84;99017.59;448084;1267;141660;-68
2022/04/22 15:29:58;;;;;;;3.30;3.00;;;;;;;10.83;48.42;99021.60;448150;1267;144582;-68
2022/04/22 15:40:04;;;;;;;3.80;3.40;;;;;;;10.59;48.54;99009.36;447324;1267;142872;-63
2022/04/22 15:50:11;;;;;;;3.80;3.40;;;;;;;10.34;49.23;99005.34;448146;1267;182612;-62
2022/04/22 16:00:18;;;;;;;5.30;4.80;;;;;;;10.31;49.79;99009.79;448160;1265;142857;-62
2022/04/22 16:10:24;;;;;;;7.80;5.40;;;;;;;10.30;50.16;99010.05;447322;1267;141300;-63
2022/04/22 16:20:40;;;;;;;5.20;4.70;;;;;;;10.03;51.09;99006.73;447689;1269;141808;-65
2022/04/22 16:30:46;;;;;;;5.40;4.60;;;;;;;9.91;51.74;99007.71;447303;1267;142093;-62
2022/04/22 16:40:52;;;;;;;5.50;4.30;;;;;;;9.75;52.15;99008.66;447642;1270;141568;-61
2022/04/22 16:50:58;;;;;;;5.40;4.40;;;;;;;9.59;53.04;99018.14;448102;1266;141790;-62
2022/04/22 17:01:05;;;;;;;7.10;6.40;;;;;;;9.31;53.73;99013.04;447278;1266;141949;-62
2022/04/22 17:11:10;;;;;;;5.90;5.30;;;;;;;9.07;54.73;99016.02;448095;1267;141967;-61
2022/04/22 17:31:40;;;;;;;6.20;4.70;;;;;;;8.37;55.48;99028.18;447272;1268;144417;-61
2022/04/22 17:41:46;;;;;;;6.30;4.90;;;;;;;7.99;56.23;99032.52;448123;1267;140448;-63
2022/04/22 17:51:52;;;;;;;5.70;4.90;;;;;;;7.60;56.75;99033.48;447349;1267;141774;-62
2022/04/22 18:01:58;;;;;;;5.90;5.10;;;;;;;7.28;57.58;99044.06;448145;1267;140929;-61
2022/04/22 18:12:04;;;;;;;8.80;8.00;;;;;;;7.00;58.24;99052.48;448060;1267;140392;-60
2022/04/22 18:22:11;;;;;;;11.50;7.10;;;;;;;6.76;58.79;99050.03;447291;1267;141351;-61
2022/04/22 18:32:16;;;;;;;9.30;8.40;;;;;;;6.42;59.54;99045.62;448146;1267;141322;-60
2022/04/22 18:42:22;;;;;;;10.40;9.30;;;;;;;6.17;60.32;99037.41;447962;1266;140881;-61
2022/04/22 18:52:28;;;;;;;14.60;9.90;;;;;;;5.92;60.98;99039.08;447287;1266;141913;-61
2022/04/22 19:02:34;;;;;;;13.00;10.30;;;;;;;5.68;61.60;99040.01;448055;1267;142740;-60
2022/04/22 19:12:40;;;;;;;19.00;14.70;;;;;;;5.51;62.13;99033.95;447904;1268;142734;-60
2022/04/22 19:22:46;;;;;;;20.50;15.50;;;;;;;5.31;62.72;99032.52;447208;1267;142637;-60
2022/04/22 19:32:52;;;;;;;43.40;27.30;;;;;;;5.15;63.08;99030.21;441907;1265;141738;-60
2022/04/22 19:42:58;;;;;;;30.10;19.80;;;;;;;5.01;63.67;99024.98;445727;1266;142573;-60
2022/04/22 19:53:05;;;;;;;44.40;26.70;;;;;;;4.85;63.81;99024.92;447979;1266;142121;-61
2022/04/22 20:03:11;;;;;;;27.00;17.50;;;;;;;4.72;64.28;99021.05;447931;1267;143384;-63
2022/04/22 20:13:16;;;;;;;19.80;13.40;;;;;;;4.49;64.72;99018.14;447211;1267;143180;-60
2022/04/22 20:23:23;;;;;;;17.40;13.90;;;;;;;4.35;65.11;99016.36;430839;1270;141551;-60
2022/04/22 20:33:29;;;;;;;22.30;12.80;;;;;;;4.26;65.57;99008.87;441008;1267;142514;-61
2022/04/22 20:43:36;;;;;;;49.80;31.80;;;;;;;4.11;65.79;99011.80;447264;1267;144512;-61
2022/04/22 20:53:50;;;;;;;23.80;16.30;;;;;;;3.95;66.28;99004.89;447768;1269;143093;-62
2022/04/22 21:03:56;;;;;;;14.90;12.10;;;;;;;3.88;66.51;98993.08;447187;1267;142584;-62
2022/04/22 21:14:02;;;;;;;13.80;11.90;;;;;;;3.81;66.71;98998.77;447709;1269;142555;-61
2022/04/22 21:24:09;;;;;;;25.10;17.40;;;;;;;3.78;66.84;99001.88;448007;1267;142959;-61
2022/04/22 21:34:16;;;;;;;18.70;13.90;;;;;;;3.80;67.27;98995.20;447228;1266;145239;-61
2022/04/22 21:44:21;;;;;;;26.40;21.60;;;;;;;3.76;67.03;98993.99;448018;1267;144743;-62
2022/04/22 21:54:27;;;;;;;18.30;14.60;;;;;;;3.65;67.57;98989.80;447911;1265;143222;-61
2022/04/22 22:04:33;;;;;;;19.20;12.80;;;;;;;3.52;67.68;98983.83;446989;1269;142374;-61
2022/04/22 22:14:40;;;;;;;16.50;11.50;;;;;;;3.36;67.84;98980.88;436095;1268;142418;-62
2022/04/22 22:24:46;;;;;;;21.80;15.40;;;;;;;3.17;68.19;98976.67;445670;1267;142241;-62
2022/04/22 22:34:51;;;;;;;17.00;12.70;;;;;;;3.03;68.74;98969.80;433731;1268;142058;-62
2022/04/22 22:44:57;;;;;;;23.10;13.00;;;;;;;2.80;68.78;98967.15;441202;1267;141808;-62
2022/04/22 22:55:04;;;;;;;18.10;13.40;;;;;;;2.52;68.99;98961.08;442537;1269;142812;-61
2022/04/22 23:05:10;;;;;;;18.70;11.90;;;;;;;2.25;69.25;98959.89;444265;1266;141469;-62
2022/04/22 23:15:16;;;;;;;17.10;13.60;;;;;;;2.00;69.75;98957.24;441248;1267;142983;-62
2022/04/22 23:25:22;;;;;;;20.30;13.60;;;;;;;1.75;70.23;98952.80;446985;1270;141405;-62
2022/04/22 23:35:28;;;;;;;19.20;13.30;;;;;;;1.52;70.56;98948.53;445707;1267;141742;-61
2022/04/22 23:45:35;;;;;;;24.30;13.20;;;;;;;1.30;70.92;98943.26;447993;1267;141846;-62
2022/04/22 23:55:43;;;;;;;22.90;13.30;;;;;;;1.10;71.22;98935.33;447751;1267;248253;-62
